createdAt,value
2023-01-30T00:00:37.620Z,60.20
2023-01-30T00:02:39.285Z,60.50
2023-01-30T00:04:41.017Z,60.40
2023-01-30T00:06:42.700Z,60.30
2023-01-30T00:08:44.719Z,60.30
2023-01-30T00:10:46.617Z,60.30
2023-01-30T00:12:48.380Z,60.30
2023-01-30T00:14:50.036Z,60.40
2023-01-30T00:16:51.646Z,60.50
2023-01-30T00:18:53.357Z,60.50
2023-01-30T00:20:56.212Z,60.60
2023-01-30T00:23:01.126Z,60.70
2023-01-30T00:25:03.446Z,60.70
2023-01-30T00:27:05.213Z,60.50
2023-01-30T00:29:07.015Z,60.50
2023-01-30T00:31:09.025Z,60.50
2023-01-30T00:33:10.760Z,60.40
2023-01-30T00:35:12.384Z,60.20
2023-01-30T00:37:14.129Z,60.30
2023-01-30T00:39:15.848Z,60.30
2023-01-30T00:41:18.759Z,60.30
2023-01-30T00:43:39.357Z,60.40
2023-01-30T00:46:01.117Z,60.40
2023-01-30T00:48:02.887Z,60.60
2023-01-30T00:50:05.025Z,60.70
2023-01-30T00:52:06.855Z,60.60
2023-01-30T00:54:08.746Z,60.60
2023-01-30T00:56:10.623Z,60.60
2023-01-30T00:58:13.107Z,60.60
2023-01-30T01:00:16.905Z,60.50
2023-01-30T01:02:18.705Z,60.30
2023-01-30T01:04:20.417Z,60.20
2023-01-30T01:06:23.200Z,60.30
2023-01-30T01:08:24.888Z,60.10
2023-01-30T01:10:26.521Z,60.10
2023-01-30T01:12:28.251Z,60.00
2023-01-30T01:14:29.934Z,60.10
2023-01-30T01:16:32.169Z,60.30
2023-01-30T01:18:36.891Z,60.30
2023-01-30T01:20:38.617Z,60.70
2023-01-30T01:22:40.293Z,60.70
2023-01-30T01:24:41.969Z,60.50
2023-01-30T01:26:44.944Z,60.60
2023-01-30T01:28:46.625Z,60.60
2023-01-30T01:30:48.488Z,60.60
2023-01-30T01:32:50.280Z,60.70
2023-01-30T01:34:51.931Z,60.40
2023-01-30T01:36:54.359Z,60.70
2023-01-30T01:38:56.362Z,60.60
2023-01-30T01:41:06.423Z,60.70
2023-01-30T01:43:15.296Z,60.90
2023-01-30T01:45:18.930Z,60.70
2023-01-30T01:47:20.763Z,60.80
2023-01-30T01:49:28.001Z,60.80
2023-01-30T01:51:31.717Z,61.20
2023-01-30T01:53:38.142Z,60.90
2023-01-30T01:55:42.824Z,60.60
2023-01-30T01:57:51.274Z,60.70
2023-01-30T01:59:55.006Z,60.90
2023-01-30T02:02:00.790Z,61.20
2023-01-30T02:04:06.182Z,61.20
2023-01-30T02:06:09.918Z,61.30
2023-01-30T02:08:15.339Z,61.40
2023-01-30T02:10:19.115Z,61.20
2023-01-30T02:12:21.912Z,61.20
2023-01-30T02:14:23.727Z,61.40
2023-01-30T02:16:25.862Z,61.50
2023-01-30T02:18:29.018Z,61.20
2023-01-30T02:20:35.355Z,61.10
2023-01-30T02:22:37.834Z,61.10
2023-01-30T02:24:45.325Z,61.00
2023-01-30T02:26:47.241Z,61.10
2023-01-30T02:28:49.521Z,61.10
2023-01-30T02:31:06.571Z,60.90
2023-01-30T02:33:08.329Z,61.10
2023-01-30T02:35:12.747Z,61.20
2023-01-30T02:37:23.247Z,61.60
2023-01-30T02:39:34.206Z,61.50
2023-01-30T02:41:58.950Z,61.60
2023-01-30T02:44:03.985Z,62.10
2023-01-30T02:46:16.060Z,62.00
2023-01-30T02:48:23.300Z,61.80
2023-01-30T02:50:27.753Z,61.40
2023-01-30T02:52:29.892Z,61.20
2023-01-30T02:54:31.708Z,61.20
2023-01-30T02:56:52.828Z,61.30
2023-01-30T02:58:59.583Z,61.50
2023-01-30T03:01:07.999Z,61.20
2023-01-30T03:03:38.993Z,61.40
2023-01-30T03:05:53.071Z,61.50
2023-01-30T03:08:13.267Z,61.20
2023-01-30T03:10:34.801Z,61.10
2023-01-30T03:12:58.471Z,60.90
2023-01-30T03:15:10.202Z,61.00
2023-01-30T03:17:13.112Z,61.00
2023-01-30T03:19:15.402Z,61.00
2023-01-30T03:21:17.619Z,60.90
2023-01-30T03:23:19.380Z,60.70
2023-01-30T03:25:23.298Z,60.70
2023-01-30T03:27:25.031Z,60.80
2023-01-30T03:29:27.516Z,60.80
2023-01-30T03:31:30.002Z,60.80
2023-01-30T03:33:31.842Z,60.90
2023-01-30T03:35:33.725Z,60.90
2023-01-30T03:37:35.712Z,60.90
2023-01-30T03:39:37.498Z,61.00
2023-01-30T03:41:40.854Z,60.80
2023-01-30T03:43:42.735Z,60.80
2023-01-30T03:45:44.633Z,61.00
2023-01-30T03:47:46.451Z,61.00
2023-01-30T03:49:48.275Z,61.60
2023-01-30T03:51:50.214Z,61.70
2023-01-30T03:53:51.944Z,61.40
2023-01-30T03:55:53.596Z,61.60
2023-01-30T03:58:00.436Z,61.80
2023-01-30T04:00:05.511Z,61.50
2023-01-30T04:02:22.371Z,61.50
2023-01-30T04:04:25.521Z,61.80
2023-01-30T04:06:27.238Z,61.80
2023-01-30T04:08:29.089Z,61.50
2023-01-30T04:10:30.958Z,61.60
2023-01-30T04:12:32.655Z,62.00
2023-01-30T04:14:35.811Z,62.30
2023-01-30T04:17:03.503Z,62.40
2023-01-30T04:19:27.741Z,62.70
2023-01-30T04:21:29.638Z,62.50
2023-01-30T04:23:31.536Z,62.60
2023-01-30T04:25:33.215Z,62.00
2023-01-30T04:27:35.289Z,61.90
2023-01-30T04:29:49.478Z,62.10
2023-01-30T04:31:51.494Z,62.00
2023-01-30T04:34:00.041Z,62.00
2023-01-30T04:36:03.015Z,62.10
2023-01-30T04:38:04.996Z,62.40
2023-01-30T04:40:07.860Z,62.30
2023-01-30T04:42:10.420Z,62.30
2023-01-30T04:44:20.761Z,62.00
2023-01-30T04:46:42.714Z,61.90
2023-01-30T04:48:46.797Z,61.70
2023-01-30T04:50:50.514Z,61.60
2023-01-30T04:52:52.207Z,61.60
2023-01-30T04:54:53.940Z,62.00
2023-01-30T04:56:55.650Z,62.00
2023-01-30T04:58:58.081Z,62.10
2023-01-30T05:01:16.529Z,62.20
2023-01-30T05:03:18.742Z,62.00
2023-01-30T05:05:20.578Z,62.20
2023-01-30T05:07:22.263Z,62.20
2023-01-30T05:09:23.890Z,62.50
2023-01-30T05:11:26.521Z,62.50
2023-01-30T05:13:28.150Z,62.30
2023-01-30T05:15:29.804Z,62.30
2023-01-30T05:17:31.529Z,63.80
2023-01-30T05:19:33.225Z,63.40
2023-01-30T05:21:34.919Z,62.90
2023-01-30T05:23:36.580Z,63.20
2023-01-30T05:25:38.213Z,63.80
2023-01-30T05:27:39.861Z,63.90
2023-01-30T05:29:41.500Z,63.60
2023-01-30T05:31:43.237Z,63.80
2023-01-30T05:33:46.385Z,64.10
2023-01-30T05:35:48.722Z,63.30
2023-01-30T05:37:50.992Z,63.50
2023-01-30T05:39:52.675Z,63.50
2023-01-30T05:41:54.303Z,64.00
2023-01-30T05:43:55.952Z,64.30
2023-01-30T05:45:58.623Z,64.10
2023-01-30T05:48:01.530Z,64.00
2023-01-30T05:50:03.576Z,64.10
2023-01-30T05:52:05.300Z,63.40
2023-01-30T05:54:07.038Z,63.50
2023-01-30T05:56:09.054Z,63.50
2023-01-30T05:58:10.895Z,63.70
2023-01-30T06:00:12.819Z,63.70
2023-01-30T06:02:17.499Z,63.60
2023-01-30T06:04:19.167Z,63.50
2023-01-30T06:06:21.272Z,63.40
2023-01-30T06:08:23.414Z,63.50
2023-01-30T06:10:25.065Z,63.50
2023-01-30T06:12:26.730Z,63.80
2023-01-30T06:14:28.375Z,63.90
2023-01-30T06:16:30.099Z,63.80
2023-01-30T06:18:31.847Z,63.60
2023-01-30T06:20:33.572Z,63.70
2023-01-30T06:22:35.199Z,63.90
2023-01-30T06:24:36.928Z,64.10
2023-01-30T06:26:38.564Z,64.10
2023-01-30T06:28:40.287Z,64.10
2023-01-30T06:30:41.971Z,64.10
2023-01-30T06:32:43.627Z,64.10
2023-01-30T06:34:45.286Z,64.00
2023-01-30T06:36:46.961Z,64.20
2023-01-30T06:38:48.764Z,64.10
2023-01-30T06:40:50.500Z,63.70
2023-01-30T06:42:52.132Z,63.70
2023-01-30T06:44:53.791Z,64.00
2023-01-30T06:46:55.466Z,63.80
2023-01-30T06:48:57.164Z,63.90
2023-01-30T06:50:58.860Z,64.10
2023-01-30T06:53:02.327Z,64.30
2023-01-30T06:55:04.727Z,64.20
2023-01-30T06:57:06.377Z,64.60
2023-01-30T06:59:08.062Z,64.50
2023-01-30T07:01:09.697Z,64.50
2023-01-30T07:03:15.448Z,64.50
2023-01-30T07:05:17.447Z,64.10
2023-01-30T07:07:19.271Z,64.10
2023-01-30T07:09:20.935Z,64.00
2023-01-30T07:11:22.605Z,64.10
2023-01-30T07:13:24.287Z,63.80
2023-01-30T07:15:26.197Z,64.00
2023-01-30T07:17:27.853Z,64.10
2023-01-30T07:19:29.487Z,64.30
2023-01-30T07:21:31.161Z,64.20
2023-01-30T07:23:32.794Z,64.10
2023-01-30T07:25:34.608Z,63.90
2023-01-30T07:27:36.284Z,64.00
2023-01-30T07:29:38.698Z,64.00
2023-01-30T07:31:40.367Z,64.10
2023-01-30T07:33:42.087Z,64.20
2023-01-30T07:35:43.895Z,63.70
2023-01-30T07:37:47.076Z,63.50
2023-01-30T07:39:48.685Z,63.80
2023-01-30T07:41:50.320Z,63.80
2023-01-30T07:43:52.388Z,63.70
2023-01-30T07:45:54.041Z,63.70
2023-01-30T07:47:55.693Z,63.60
2023-01-30T07:49:57.388Z,63.60
2023-01-30T07:51:59.057Z,63.50
2023-01-30T07:54:04.176Z,63.70
2023-01-30T07:56:06.960Z,64.10
2023-01-30T07:58:11.043Z,64.20
2023-01-30T08:00:13.103Z,64.50
2023-01-30T08:02:14.819Z,64.10
2023-01-30T08:04:16.689Z,64.20
2023-01-30T08:06:18.618Z,64.20
2023-01-30T08:08:20.335Z,63.90
2023-01-30T08:10:22.062Z,63.90
2023-01-30T08:12:23.685Z,64.00
2023-01-30T08:14:25.538Z,63.90
2023-01-30T08:16:27.455Z,64.40
2023-01-30T08:18:29.903Z,64.50
2023-01-30T08:20:31.676Z,64.40
2023-01-30T08:22:33.336Z,64.60
2023-01-30T08:24:35.244Z,64.80
2023-01-30T08:26:37.012Z,65.00
2023-01-30T08:28:39.223Z,65.20
2023-01-30T08:30:41.245Z,65.00
2023-01-30T08:32:42.953Z,65.10
2023-01-30T08:34:44.608Z,65.00
2023-01-30T08:36:48.233Z,65.10
2023-01-30T08:38:50.011Z,65.20
2023-01-30T08:40:51.649Z,65.30
2023-01-30T08:42:53.319Z,65.40
2023-01-30T08:44:54.938Z,65.50
2023-01-30T08:46:56.584Z,65.30
2023-01-30T08:48:58.268Z,65.10
2023-01-30T08:51:00.105Z,65.00
2023-01-30T08:53:06.192Z,65.10
2023-01-30T08:55:08.258Z,65.10
2023-01-30T08:57:09.944Z,65.40
2023-01-30T08:59:11.674Z,65.60
2023-01-30T09:01:13.403Z,65.00
2023-01-30T09:03:15.350Z,65.10
2023-01-30T09:05:17.316Z,65.10
2023-01-30T09:07:19.641Z,64.90
2023-01-30T09:09:21.329Z,65.00
2023-01-30T09:11:23.039Z,64.40
2023-01-30T09:13:25.194Z,64.80
2023-01-30T09:15:26.934Z,64.80
2023-01-30T09:17:28.595Z,65.00
2023-01-30T09:19:30.354Z,65.50
2023-01-30T09:21:32.225Z,65.80
2023-01-30T09:23:34.032Z,65.70
2023-01-30T09:25:35.683Z,65.90
2023-01-30T09:27:37.365Z,65.70
2023-01-30T09:29:39.030Z,65.80
2023-01-30T09:31:40.856Z,65.80
2023-01-30T09:33:42.511Z,66.00
2023-01-30T09:35:46.685Z,66.20
2023-01-30T09:37:49.361Z,66.10
2023-01-30T09:39:51.108Z,66.40
2023-01-30T09:41:52.827Z,65.90
2023-01-30T09:43:54.538Z,65.90
2023-01-30T09:46:05.157Z,65.80
2023-01-30T09:48:18.385Z,65.50
2023-01-30T09:50:21.533Z,65.00
2023-01-30T09:52:42.070Z,64.70
2023-01-30T09:54:45.252Z,64.70
2023-01-30T09:56:47.122Z,64.90
2023-01-30T09:58:53.659Z,64.50
2023-01-30T10:00:59.754Z,64.70
2023-01-30T10:03:04.516Z,64.70
2023-01-30T10:05:06.818Z,64.60
2023-01-30T10:07:16.406Z,64.20
2023-01-30T10:09:37.827Z,63.90
2023-01-30T10:11:58.453Z,64.10
2023-01-30T10:14:36.150Z,63.80
2023-01-30T10:16:44.381Z,64.10
2023-01-30T10:18:48.939Z,64.40
2023-01-30T10:21:02.690Z,64.60
2023-01-30T10:23:22.968Z,64.30
2023-01-30T10:25:30.865Z,64.40
2023-01-30T10:27:33.346Z,64.50
2023-01-30T10:29:38.540Z,64.90
2023-01-30T10:31:48.639Z,64.70
2023-01-30T10:33:59.508Z,64.90
2023-01-30T10:36:04.285Z,64.60
2023-01-30T10:38:12.779Z,64.50
2023-01-30T10:40:19.641Z,64.50
2023-01-30T10:42:26.378Z,64.40
2023-01-30T10:44:28.138Z,64.40
2023-01-30T10:46:48.799Z,64.70
2023-01-30T10:48:56.635Z,64.30
2023-01-30T10:51:05.419Z,64.40
2023-01-30T10:53:15.609Z,64.30
2023-01-30T10:55:39.751Z,64.20
2023-01-30T10:57:57.407Z,64.30
2023-01-30T11:00:04.377Z,64.40
2023-01-30T11:02:12.293Z,64.40
2023-01-30T11:04:26.327Z,64.70
2023-01-30T11:06:28.082Z,64.80
2023-01-30T11:08:31.287Z,65.30
2023-01-30T11:10:32.999Z,65.50
2023-01-30T11:12:34.756Z,65.70
2023-01-30T11:14:55.097Z,65.60
2023-01-30T11:16:58.000Z,65.70
2023-01-30T11:19:22.124Z,65.40
2023-01-30T11:21:32.098Z,65.50
2023-01-30T11:23:41.864Z,65.40
2023-01-30T11:25:48.052Z,65.40
2023-01-30T11:27:54.824Z,65.90
2023-01-30T11:30:03.807Z,66.00
2023-01-30T11:32:11.634Z,66.00
2023-01-30T11:34:15.479Z,65.60
2023-01-30T11:36:28.216Z,66.10
2023-01-30T11:38:32.027Z,66.10
2023-01-30T11:40:37.446Z,65.90
2023-01-30T11:42:43.881Z,66.00
2023-01-30T11:44:45.563Z,66.00
2023-01-30T11:46:47.361Z,66.00
2023-01-30T11:49:44.596Z,65.90
2023-01-30T11:51:39.372Z,65.70
2023-01-30T11:53:48.884Z,65.50
2023-01-30T11:56:02.568Z,65.40
2023-01-30T11:58:08.612Z,65.50
2023-01-30T12:00:19.954Z,65.30
2023-01-30T12:02:39.829Z,65.30
2023-01-30T12:04:45.243Z,65.60
2023-01-30T12:07:03.724Z,65.80
2023-01-30T12:09:06.003Z,65.90
2023-01-30T12:11:23.652Z,66.00
2023-01-30T12:13:37.594Z,66.00
2023-01-30T12:15:39.942Z,65.70
2023-01-30T12:17:50.783Z,65.90
2023-01-30T12:19:58.282Z,65.80
2023-01-30T12:22:11.393Z,65.90
2023-01-30T12:24:13.281Z,65.70
2023-01-30T12:26:16.937Z,65.80
2023-01-30T12:28:22.305Z,65.90
2023-01-30T12:30:36.278Z,66.00
2023-01-30T12:32:38.031Z,66.30
2023-01-30T12:34:40.893Z,66.00
2023-01-30T12:36:48.031Z,65.80
2023-01-30T12:39:13.124Z,66.00
2023-01-30T12:41:17.888Z,65.90
2023-01-30T12:43:26.345Z,65.80
2023-01-30T12:45:29.472Z,66.00
2023-01-30T12:47:40.347Z,66.70
2023-01-30T12:49:47.959Z,65.90
2023-01-30T12:51:52.787Z,66.10
2023-01-30T12:54:03.643Z,66.20
2023-01-30T12:56:17.409Z,66.00
2023-01-30T12:58:23.182Z,66.20
2023-01-30T13:00:24.897Z,66.30
2023-01-30T13:02:35.702Z,66.10
2023-01-30T13:04:56.189Z,66.20
2023-01-30T13:07:18.844Z,66.40
2023-01-30T13:09:38.876Z,66.30
2023-01-30T13:11:46.530Z,66.60
2023-01-30T13:13:54.527Z,66.60
2023-01-30T13:16:07.017Z,66.50
2023-01-30T13:18:08.846Z,66.00
2023-01-30T13:20:13.539Z,66.00
2023-01-30T13:22:24.071Z,66.10
2023-01-30T13:24:52.149Z,66.00
2023-01-30T13:26:55.144Z,66.20
2023-01-30T13:28:58.733Z,66.60
2023-01-30T13:31:00.905Z,66.50
2023-01-30T13:33:11.340Z,66.50
2023-01-30T13:35:18.688Z,66.90
2023-01-30T13:37:20.576Z,66.50
2023-01-30T13:39:22.302Z,66.50
2023-01-30T13:41:25.301Z,66.60
2023-01-30T13:43:38.674Z,66.20
2023-01-30T13:45:43.570Z,66.00
2023-01-30T13:47:45.307Z,66.10
2023-01-30T13:49:50.101Z,65.80
2023-01-30T13:51:57.131Z,66.10
2023-01-30T13:54:13.868Z,66.20
2023-01-30T13:56:40.780Z,65.70
2023-01-30T13:58:57.345Z,65.70
2023-01-30T14:00:59.128Z,65.80
2023-01-30T14:03:03.737Z,65.90
2023-01-30T14:05:05.924Z,66.30
2023-01-30T14:07:16.797Z,66.70
2023-01-30T14:09:20.314Z,66.50
2023-01-30T14:11:28.943Z,66.20
2023-01-30T14:13:32.389Z,66.40
2023-01-30T14:15:35.332Z,66.30
2023-01-30T14:17:37.056Z,66.80
2023-01-30T14:19:41.656Z,66.80
2023-01-30T14:21:53.820Z,66.10
2023-01-30T14:24:00.610Z,65.80
2023-01-30T14:26:02.617Z,65.80
2023-01-30T14:28:04.298Z,66.00
2023-01-30T14:30:26.118Z,66.10
2023-01-30T14:32:46.821Z,65.90
2023-01-30T14:34:49.783Z,66.00
2023-01-30T14:36:52.697Z,66.10
2023-01-30T14:39:17.424Z,66.20
2023-01-30T14:41:26.533Z,66.20
2023-01-30T14:43:36.883Z,65.80
2023-01-30T14:45:44.430Z,65.90
2023-01-30T14:47:51.019Z,65.80
2023-01-30T14:49:53.947Z,66.00
2023-01-30T14:51:56.344Z,66.00
2023-01-30T14:54:14.415Z,66.30
2023-01-30T14:56:16.732Z,66.20
2023-01-30T14:58:18.837Z,66.00
2023-01-30T15:00:23.248Z,66.00
2023-01-30T15:02:28.905Z,65.80
2023-01-30T15:04:32.296Z,66.00
2023-01-30T15:06:36.906Z,66.30
2023-01-30T15:08:41.604Z,66.50
2023-01-30T15:10:55.582Z,66.60
2023-01-30T15:13:06.238Z,66.80
2023-01-30T15:15:18.713Z,67.10
2023-01-30T15:17:32.458Z,67.20
2023-01-30T15:19:42.713Z,67.20
2023-01-30T15:21:53.347Z,66.80
2023-01-30T15:24:00.878Z,66.60
2023-01-30T15:26:18.453Z,66.80
2023-01-30T15:28:20.303Z,66.50
2023-01-30T15:30:32.221Z,66.60
2023-01-30T15:32:34.128Z,66.60
2023-01-30T15:34:35.968Z,66.50
2023-01-30T15:36:38.816Z,66.40
2023-01-30T15:38:40.598Z,66.40
2023-01-30T15:40:42.388Z,66.50
2023-01-30T15:42:46.951Z,66.60
2023-01-30T15:45:10.232Z,66.70
2023-01-30T15:47:11.955Z,66.40
2023-01-30T15:49:22.815Z,66.50
2023-01-30T15:51:29.119Z,66.90
2023-01-30T15:53:51.173Z,66.70
2023-01-30T15:55:53.391Z,66.60
2023-01-30T15:57:57.630Z,66.50
2023-01-30T16:00:00.582Z,66.40
2023-01-30T16:02:48.236Z,66.10
2023-01-30T16:08:26.668Z,66.30
2023-01-30T16:10:29.759Z,66.40
2023-01-30T16:12:31.999Z,67.20
2023-01-30T16:14:37.559Z,66.80
2023-01-30T16:16:41.077Z,66.60
2023-01-30T16:18:54.688Z,66.80
2023-01-30T16:21:06.592Z,67.00
2023-01-30T16:23:19.334Z,67.40
2023-01-30T16:25:25.933Z,67.00
2023-01-30T16:27:34.429Z,66.60
2023-01-30T16:29:45.963Z,67.80
2023-01-30T16:31:48.667Z,67.10
2023-01-30T16:33:51.158Z,67.00
2023-01-30T16:35:53.033Z,67.30
2023-01-30T16:37:56.022Z,66.90
2023-01-30T16:40:04.053Z,67.00
2023-01-30T16:42:38.349Z,66.70
2023-01-30T16:44:40.131Z,66.50
2023-01-30T16:46:41.821Z,66.20
2023-01-30T16:48:43.803Z,66.30
2023-01-30T16:50:47.377Z,66.60
2023-01-30T16:52:53.925Z,67.00
2023-01-30T16:54:57.730Z,67.20
2023-01-30T16:57:01.373Z,66.80
2023-01-30T16:59:03.427Z,66.90
2023-01-30T17:01:06.706Z,66.50
2023-01-30T17:03:19.890Z,66.50
2023-01-30T17:05:23.166Z,66.40
2023-01-30T17:07:31.980Z,66.70
2023-01-30T17:09:36.924Z,66.50
2023-01-30T17:11:39.717Z,66.70
2023-01-30T17:13:42.204Z,66.90
2023-01-30T17:15:44.125Z,67.00
2023-01-30T17:17:45.852Z,67.20
2023-01-30T17:19:48.610Z,66.80
2023-01-30T17:21:51.148Z,67.10
2023-01-30T17:24:03.494Z,67.20
2023-01-30T17:26:05.392Z,67.40
2023-01-30T17:28:07.788Z,67.20
2023-01-30T17:30:14.226Z,67.00
2023-01-30T17:32:16.139Z,66.80
2023-01-30T17:34:18.155Z,66.90
2023-01-30T17:36:24.090Z,66.90
2023-01-30T17:38:25.999Z,66.80
2023-01-30T17:40:33.611Z,66.80
2023-01-30T17:42:35.325Z,66.70
2023-01-30T17:44:37.161Z,66.80
2023-01-30T17:46:40.380Z,67.00
2023-01-30T17:48:42.959Z,67.10
2023-01-30T17:50:44.707Z,66.60
2023-01-30T17:52:46.499Z,66.70
2023-01-30T17:54:48.255Z,66.80
2023-01-30T17:56:52.798Z,66.90
2023-01-30T17:58:54.529Z,66.80
2023-01-30T18:00:59.585Z,66.10
2023-01-30T18:03:01.431Z,66.10
2023-01-30T18:05:03.298Z,66.90
2023-01-30T18:07:06.410Z,66.20
2023-01-30T18:09:12.470Z,66.70
2023-01-30T18:11:14.963Z,66.90
2023-01-30T18:13:16.768Z,67.00
2023-01-30T18:15:19.133Z,66.40
2023-01-30T18:17:21.436Z,66.70
2023-01-30T18:19:24.031Z,66.50
2023-01-30T18:21:26.198Z,66.70
2023-01-30T18:23:27.920Z,66.50
2023-01-30T18:25:29.857Z,66.50
2023-01-30T18:27:33.719Z,66.20
2023-01-30T18:29:35.479Z,66.10
2023-01-30T18:31:38.159Z,66.10
2023-01-30T18:33:41.161Z,66.50
2023-01-30T18:35:42.945Z,66.70
2023-01-30T18:37:44.809Z,66.30
2023-01-30T18:39:46.552Z,66.00
2023-01-30T18:41:48.246Z,66.40
2023-01-30T18:44:00.698Z,66.20
2023-01-30T18:46:03.965Z,66.00
2023-01-30T18:48:06.109Z,66.00
2023-01-30T18:50:08.224Z,66.00
2023-01-30T18:52:10.333Z,66.10
2023-01-30T18:54:13.431Z,66.20
2023-01-30T18:56:16.828Z,66.40
2023-01-30T18:58:18.742Z,66.70
2023-01-30T19:00:21.510Z,66.70
2023-01-30T19:02:23.954Z,66.90
2023-01-30T19:04:25.828Z,66.70
2023-01-30T19:06:28.279Z,66.80
2023-01-30T19:08:30.816Z,66.70
2023-01-30T19:10:33.061Z,67.00
2023-01-30T19:12:53.518Z,67.00
2023-01-30T19:14:55.334Z,66.90
2023-01-30T19:16:57.330Z,66.90
2023-01-30T19:18:59.607Z,67.00
2023-01-30T19:21:02.011Z,67.10
2023-01-30T19:23:03.751Z,67.30
2023-01-30T19:25:05.812Z,67.20
2023-01-30T19:27:09.821Z,67.20
2023-01-30T19:29:11.786Z,67.20
2023-01-30T19:31:19.976Z,67.10
2023-01-30T19:33:25.410Z,67.20
2023-01-30T19:35:30.236Z,67.50
2023-01-30T19:37:34.267Z,67.20
2023-01-30T19:39:37.128Z,67.60
2023-01-30T19:41:38.970Z,67.80
2023-01-30T19:43:41.157Z,67.70
2023-01-30T19:45:43.145Z,67.80
2023-01-30T19:47:45.995Z,68.10
2023-01-30T19:49:48.754Z,68.10
2023-01-30T19:51:50.691Z,68.00
2023-01-30T19:53:58.373Z,68.10
2023-01-30T19:56:00.516Z,67.90
2023-01-30T19:58:03.466Z,67.90
2023-01-30T20:00:06.306Z,67.90
2023-01-30T20:02:09.798Z,67.90
2023-01-30T20:04:11.888Z,67.80
2023-01-30T20:06:17.919Z,67.80
2023-01-30T20:08:31.974Z,67.70
2023-01-30T20:10:35.544Z,67.50
2023-01-30T20:12:37.612Z,67.80
2023-01-30T20:14:39.651Z,67.70
2023-01-30T20:16:41.605Z,67.70
2023-01-30T20:18:43.443Z,67.40
2023-01-30T20:20:45.681Z,67.40
2023-01-30T20:22:48.635Z,67.40
2023-01-30T20:24:50.701Z,67.40
2023-01-30T20:26:52.637Z,68.20
2023-01-30T20:28:55.326Z,67.00
2023-01-30T20:30:59.854Z,67.10
2023-01-30T20:33:08.039Z,67.80
2023-01-30T20:35:17.756Z,66.80
2023-01-30T20:37:22.852Z,66.50
2023-01-30T20:39:25.249Z,66.60
2023-01-30T20:41:34.960Z,66.80
2023-01-30T20:43:37.702Z,67.00
2023-01-30T20:45:39.786Z,67.20
2023-01-30T20:47:42.197Z,67.30
2023-01-30T20:49:44.558Z,67.40
2023-01-30T20:51:46.893Z,67.50
2023-01-30T20:53:53.445Z,67.50
2023-01-30T20:55:59.369Z,67.50
2023-01-30T20:58:01.213Z,67.50
2023-01-30T21:00:05.518Z,67.50
2023-01-30T21:02:09.042Z,67.50
2023-01-30T21:04:13.710Z,67.40
2023-01-30T21:06:42.461Z,67.40
2023-01-30T21:08:38.586Z,67.40
2023-01-30T21:10:46.566Z,67.30
2023-01-30T21:12:48.437Z,67.30
2023-01-30T21:14:51.279Z,67.30
2023-01-30T21:16:53.391Z,67.40
2023-01-30T21:19:02.325Z,67.10
2023-01-30T21:21:17.089Z,67.00
2023-01-30T21:23:18.986Z,67.10
2023-01-30T21:25:21.365Z,67.20
2023-01-30T21:27:23.763Z,67.20
2023-01-30T21:29:26.868Z,67.00
2023-01-30T21:31:29.907Z,67.10
2023-01-30T21:33:31.780Z,67.00
2023-01-30T21:35:33.493Z,67.20
2023-01-30T21:37:53.867Z,67.40
2023-01-30T21:40:14.256Z,67.60
2023-01-30T21:42:34.537Z,67.50
2023-01-30T21:44:40.752Z,67.60
2023-01-30T21:46:46.353Z,67.50
2023-01-30T21:48:48.034Z,67.40
2023-01-30T21:50:50.038Z,67.20
2023-01-30T21:52:51.836Z,67.10
2023-01-30T21:54:53.673Z,67.20
2023-01-30T21:56:55.728Z,67.20
2023-01-30T21:59:00.945Z,67.20
2023-01-30T22:01:03.695Z,67.20
2023-01-30T22:03:07.473Z,67.20
2023-01-30T22:05:14.248Z,67.20
2023-01-30T22:07:15.954Z,67.30
2023-01-30T22:09:17.644Z,67.20
2023-01-30T22:11:19.557Z,67.10
2023-01-30T22:13:21.293Z,67.00
2023-01-30T22:15:23.024Z,67.00
2023-01-30T22:17:24.864Z,66.90
2023-01-30T22:19:26.670Z,66.90
2023-01-30T22:21:29.863Z,66.90
2023-01-30T22:23:32.907Z,66.70
2023-01-30T22:25:34.586Z,66.70
2023-01-30T22:27:36.317Z,66.50
2023-01-30T22:29:38.523Z,66.50
2023-01-30T22:31:41.313Z,66.50
2023-01-30T22:33:44.564Z,66.40
2023-01-30T22:35:49.966Z,66.30
2023-01-30T22:37:51.717Z,66.40
2023-01-30T22:39:53.905Z,66.50
2023-01-30T22:41:55.753Z,66.40
2023-01-30T22:43:58.387Z,66.50
2023-01-30T22:46:04.558Z,66.90
2023-01-30T22:48:06.434Z,66.40
2023-01-30T22:50:08.639Z,66.40
2023-01-30T22:52:10.411Z,66.50
2023-01-30T22:54:16.908Z,66.60
2023-01-30T22:56:20.143Z,66.70
2023-01-30T22:58:21.835Z,66.60
2023-01-30T23:00:23.610Z,66.50
2023-01-30T23:02:25.240Z,66.50
2023-01-30T23:04:27.013Z,66.40
2023-01-30T23:06:31.239Z,66.40
2023-01-30T23:08:33.843Z,66.10
2023-01-30T23:10:39.110Z,66.20
2023-01-30T23:12:59.582Z,66.70
2023-01-30T23:15:01.279Z,66.10
2023-01-30T23:17:25.614Z,66.10
2023-01-30T23:19:27.362Z,66.00
2023-01-30T23:21:29.092Z,66.30
2023-01-30T23:23:31.036Z,66.40
2023-01-30T23:25:32.974Z,66.70
2023-01-30T23:27:35.443Z,66.80
2023-01-30T23:29:37.973Z,66.90
2023-01-30T23:31:40.346Z,66.80
2023-01-30T23:33:42.964Z,66.80
2023-01-30T23:35:45.213Z,66.80
2023-01-30T23:38:05.616Z,66.70
2023-01-30T23:40:07.666Z,66.50
2023-01-30T23:42:09.260Z,66.50
2023-01-30T23:44:11.165Z,66.60
2023-01-30T23:46:18.324Z,66.50
2023-01-30T23:48:20.018Z,66.50
2023-01-30T23:50:21.680Z,66.50
2023-01-30T23:52:23.343Z,66.60
2023-01-30T23:54:25.074Z,66.70
2023-01-30T23:56:27.937Z,66.90
2023-01-30T23:58:29.739Z,67.10
